sensor_id;sensor_type;location;lat;lon;timestamp;P1;durP1;ratioP1;P2;durP2;ratioP2
14021;SDS011;7086;48.116;11.580;2023-07-16T00:01:24;4.60;;;2.85;;
14021;SDS011;7086;48.116;11.580;2023-07-16T00:03:50;2.97;;;2.78;;
14021;SDS011;7086;48.116;11.580;2023-07-16T00:06:17;2.88;;;2.67;;
14021;SDS011;7086;48.116;11.580;2023-07-16T00:08:44;3.15;;;2.50;;
14021;SDS011;7086;48.116;11.580;2023-07-16T00:11:11;2.85;;;2.50;;
14021;SDS011;7086;48.116;11.580;2023-07-16T00:13:38;5.68;;;2.72;;
14021;SDS011;7086;48.116;11.580;2023-07-16T00:16:12;3.88;;;2.55;;
14021;SDS011;7086;48.116;11.580;2023-07-16T00:18:40;3.60;;;2.67;;
14021;SDS011;7086;48.116;11.580;2023-07-16T00:21:07;4.15;;;2.67;;
14021;SDS011;7086;48.116;11.580;2023-07-16T00:23:34;2.78;;;2.50;;
14021;SDS011;7086;48.116;11.580;2023-07-16T00:26:01;2.70;;;2.47;;
14021;SDS011;7086;48.116;11.580;2023-07-16T00:28:29;3.10;;;2.60;;
14021;SDS011;7086;48.116;11.580;2023-07-16T00:30:55;2.60;;;2.25;;
14021;SDS011;7086;48.116;11.580;2023-07-16T00:33:24;3.08;;;2.45;;
14021;SDS011;7086;48.116;11.580;2023-07-16T00:35:51;6.20;;;2.70;;
14021;SDS011;7086;48.116;11.580;2023-07-16T00:38:18;3.00;;;2.70;;
14021;SDS011;7086;48.116;11.580;2023-07-16T00:40:46;6.00;;;2.70;;
14021;SDS011;7086;48.116;11.580;2023-07-16T00:43:13;3.30;;;3.00;;
14021;SDS011;7086;48.116;11.580;2023-07-16T00:45:47;2.72;;;2.40;;
14021;SDS011;7086;48.116;11.580;2023-07-16T00:48:15;2.60;;;2.40;;
14021;SDS011;7086;48.116;11.580;2023-07-16T00:50:43;2.65;;;2.42;;
14021;SDS011;7086;48.116;11.580;2023-07-16T00:53:11;2.70;;;2.50;;
14021;SDS011;7086;48.116;11.580;2023-07-16T00:55:39;2.53;;;2.33;;
14021;SDS011;7086;48.116;11.580;2023-07-16T00:58:06;2.40;;;2.20;;
14021;SDS011;7086;48.116;11.580;2023-07-16T01:00:34;2.83;;;2.63;;
14021;SDS011;7086;48.116;11.580;2023-07-16T01:03:02;3.78;;;2.30;;
14021;SDS011;7086;48.116;11.580;2023-07-16T01:05:33;3.25;;;2.65;;
14021;SDS011;7086;48.116;11.580;2023-07-16T01:08:06;3.08;;;2.80;;
14021;SDS011;7086;48.116;11.580;2023-07-16T01:10:36;3.55;;;3.25;;
14021;SDS011;7086;48.116;11.580;2023-07-16T01:13:04;2.90;;;2.50;;
14021;SDS011;7086;48.116;11.580;2023-07-16T01:15:31;2.65;;;2.50;;
14021;SDS011;7086;48.116;11.580;2023-07-16T01:17:58;3.03;;;2.72;;
14021;SDS011;7086;48.116;11.580;2023-07-16T01:20:25;2.65;;;2.45;;
14021;SDS011;7086;48.116;11.580;2023-07-16T01:22:59;2.85;;;2.65;;
14021;SDS011;7086;48.116;11.580;2023-07-16T01:25:37;2.53;;;2.33;;
14021;SDS011;7086;48.116;11.580;2023-07-16T01:28:22;4.32;;;3.10;;
14021;SDS011;7086;48.116;11.580;2023-07-16T01:30:59;2.85;;;2.58;;
14021;SDS011;7086;48.116;11.580;2023-07-16T01:33:26;3.05;;;2.85;;
14021;SDS011;7086;48.116;11.580;2023-07-16T01:35:56;2.90;;;2.40;;
14021;SDS011;7086;48.116;11.580;2023-07-16T01:38:25;4.60;;;2.97;;
14021;SDS011;7086;48.116;11.580;2023-07-16T01:40:52;4.20;;;3.40;;
14021;SDS011;7086;48.116;11.580;2023-07-16T01:43:19;2.78;;;2.55;;
14021;SDS011;7086;48.116;11.580;2023-07-16T01:45:46;2.72;;;2.53;;
14021;SDS011;7086;48.116;11.580;2023-07-16T01:48:16;3.58;;;2.80;;
14021;SDS011;7086;48.116;11.580;2023-07-16T01:50:55;2.88;;;2.55;;
14021;SDS011;7086;48.116;11.580;2023-07-16T01:53:22;4.28;;;2.80;;
14021;SDS011;7086;48.116;11.580;2023-07-16T01:55:49;3.75;;;2.50;;
14021;SDS011;7086;48.116;11.580;2023-07-16T01:58:15;3.22;;;2.80;;
14021;SDS011;7086;48.116;11.580;2023-07-16T02:00:42;2.90;;;2.70;;
14021;SDS011;7086;48.116;11.580;2023-07-16T02:03:09;2.75;;;2.55;;
14021;SDS011;7086;48.116;11.580;2023-07-16T02:05:37;2.85;;;2.40;;
14021;SDS011;7086;48.116;11.580;2023-07-16T02:08:04;3.30;;;2.90;;
14021;SDS011;7086;48.116;11.580;2023-07-16T02:10:31;5.25;;;3.10;;
14021;SDS011;7086;48.116;11.580;2023-07-16T02:12:58;3.70;;;2.72;;
14021;SDS011;7086;48.116;11.580;2023-07-16T02:15:25;3.92;;;3.08;;
14021;SDS011;7086;48.116;11.580;2023-07-16T02:17:51;4.75;;;2.92;;
14021;SDS011;7086;48.116;11.580;2023-07-16T02:20:18;5.70;;;3.28;;
14021;SDS011;7086;48.116;11.580;2023-07-16T02:22:47;6.05;;;2.83;;
14021;SDS011;7086;48.116;11.580;2023-07-16T02:25:13;5.20;;;3.60;;
14021;SDS011;7086;48.116;11.580;2023-07-16T02:27:40;3.30;;;3.10;;
14021;SDS011;7086;48.116;11.580;2023-07-16T02:30:07;4.57;;;2.78;;
14021;SDS011;7086;48.116;11.580;2023-07-16T02:32:34;3.72;;;2.92;;
14021;SDS011;7086;48.116;11.580;2023-07-16T02:35:01;2.80;;;2.60;;
14021;SDS011;7086;48.116;11.580;2023-07-16T02:37:28;4.50;;;2.80;;
14021;SDS011;7086;48.116;11.580;2023-07-16T02:39:56;3.33;;;3.03;;
14021;SDS011;7086;48.116;11.580;2023-07-16T02:42:23;3.03;;;2.75;;
14021;SDS011;7086;48.116;11.580;2023-07-16T02:44:50;3.13;;;2.80;;
14021;SDS011;7086;48.116;11.580;2023-07-16T02:47:17;4.13;;;3.05;;
14021;SDS011;7086;48.116;11.580;2023-07-16T02:49:43;4.40;;;2.80;;
14021;SDS011;7086;48.116;11.580;2023-07-16T02:52:10;3.03;;;2.75;;
14021;SDS011;7086;48.116;11.580;2023-07-16T02:54:37;2.90;;;2.70;;
14021;SDS011;7086;48.116;11.580;2023-07-16T02:57:06;5.03;;;3.13;;
14021;SDS011;7086;48.116;11.580;2023-07-16T02:59:32;2.92;;;2.78;;
14021;SDS011;7086;48.116;11.580;2023-07-16T03:01:59;6.93;;;2.40;;
14021;SDS011;7086;48.116;11.580;2023-07-16T03:04:26;2.83;;;2.63;;
14021;SDS011;7086;48.116;11.580;2023-07-16T03:06:53;4.10;;;2.47;;
14021;SDS011;7086;48.116;11.580;2023-07-16T03:09:19;2.75;;;2.60;;
14021;SDS011;7086;48.116;11.580;2023-07-16T03:11:46;3.25;;;2.28;;
14021;SDS011;7086;48.116;11.580;2023-07-16T03:14:14;2.72;;;2.53;;
14021;SDS011;7086;48.116;11.580;2023-07-16T03:16:41;2.40;;;2.30;;
14021;SDS011;7086;48.116;11.580;2023-07-16T03:19:08;2.15;;;1.95;;
14021;SDS011;7086;48.116;11.580;2023-07-16T03:21:35;3.17;;;2.47;;
14021;SDS011;7086;48.116;11.580;2023-07-16T03:24:01;3.45;;;2.28;;
14021;SDS011;7086;48.116;11.580;2023-07-16T03:26:28;2.20;;;2.05;;
14021;SDS011;7086;48.116;11.580;2023-07-16T03:28:55;1.85;;;1.75;;
14021;SDS011;7086;48.116;11.580;2023-07-16T03:31:23;1.60;;;1.50;;
14021;SDS011;7086;48.116;11.580;2023-07-16T03:33:50;2.80;;;2.30;;
14021;SDS011;7086;48.116;11.580;2023-07-16T03:36:17;1.85;;;1.75;;
14021;SDS011;7086;48.116;11.580;2023-07-16T03:38:44;1.90;;;1.80;;
14021;SDS011;7086;48.116;11.580;2023-07-16T03:41:11;1.70;;;1.60;;
14021;SDS011;7086;48.116;11.580;2023-07-16T03:43:38;2.00;;;1.90;;
14021;SDS011;7086;48.116;11.580;2023-07-16T03:46:05;1.90;;;1.70;;
14021;SDS011;7086;48.116;11.580;2023-07-16T03:48:34;1.98;;;1.83;;
14021;SDS011;7086;48.116;11.580;2023-07-16T03:51:01;2.20;;;2.03;;
14021;SDS011;7086;48.116;11.580;2023-07-16T03:53:28;2.30;;;2.20;;
14021;SDS011;7086;48.116;11.580;2023-07-16T03:55:55;3.00;;;2.33;;
14021;SDS011;7086;48.116;11.580;2023-07-16T03:58:21;1.83;;;1.73;;
14021;SDS011;7086;48.116;11.580;2023-07-16T04:00:48;3.63;;;1.90;;
14021;SDS011;7086;48.116;11.580;2023-07-16T04:03:15;2.30;;;2.20;;
14021;SDS011;7086;48.116;11.580;2023-07-16T04:05:43;2.22;;;2.00;;
14021;SDS011;7086;48.116;11.580;2023-07-16T04:08:10;2.25;;;1.80;;
14021;SDS011;7086;48.116;11.580;2023-07-16T04:10:37;2.72;;;1.73;;
14021;SDS011;7086;48.116;11.580;2023-07-16T04:13:04;1.65;;;1.50;;
14021;SDS011;7086;48.116;11.580;2023-07-16T04:15:30;2.85;;;1.90;;
14021;SDS011;7086;48.116;11.580;2023-07-16T04:17:57;1.95;;;1.50;;
14021;SDS011;7086;48.116;11.580;2023-07-16T04:20:24;2.47;;;1.58;;
14021;SDS011;7086;48.116;11.580;2023-07-16T04:22:52;2.53;;;1.60;;
14021;SDS011;7086;48.116;11.580;2023-07-16T04:25:19;1.73;;;1.17;;
14021;SDS011;7086;48.116;11.580;2023-07-16T04:27:46;3.95;;;1.52;;
14021;SDS011;7086;48.116;11.580;2023-07-16T04:30:12;1.80;;;1.70;;
14021;SDS011;7086;48.116;11.580;2023-07-16T04:32:39;1.98;;;1.60;;
14021;SDS011;7086;48.116;11.580;2023-07-16T04:35:06;1.70;;;1.52;;
14021;SDS011;7086;48.116;11.580;2023-07-16T04:37:34;1.40;;;1.30;;
14021;SDS011;7086;48.116;11.580;2023-07-16T04:40:02;1.02;;;0.95;;
14021;SDS011;7086;48.116;11.580;2023-07-16T04:42:29;0.90;;;0.82;;
14021;SDS011;7086;48.116;11.580;2023-07-16T04:44:56;1.40;;;1.25;;
14021;SDS011;7086;48.116;11.580;2023-07-16T04:47:23;1.75;;;1.10;;
14021;SDS011;7086;48.116;11.580;2023-07-16T04:49:50;1.73;;;1.50;;
14021;SDS011;7086;48.116;11.580;2023-07-16T04:52:17;2.35;;;1.40;;
14021;SDS011;7086;48.116;11.580;2023-07-16T04:54:43;1.48;;;1.38;;
14021;SDS011;7086;48.116;11.580;2023-07-16T04:57:12;1.30;;;1.20;;
14021;SDS011;7086;48.116;11.580;2023-07-16T04:59:38;1.20;;;1.20;;
14021;SDS011;7086;48.116;11.580;2023-07-16T05:02:05;1.23;;;1.10;;
14021;SDS011;7086;48.116;11.580;2023-07-16T05:04:32;1.52;;;1.42;;
14021;SDS011;7086;48.116;11.580;2023-07-16T05:07:00;1.92;;;1.20;;
14021;SDS011;7086;48.116;11.580;2023-07-16T05:09:27;1.15;;;1.13;;
14021;SDS011;7086;48.116;11.580;2023-07-16T05:11:54;1.23;;;1.23;;
14021;SDS011;7086;48.116;11.580;2023-07-16T05:14:22;1.58;;;1.20;;
14021;SDS011;7086;48.116;11.580;2023-07-16T05:16:52;1.38;;;1.38;;
14021;SDS011;7086;48.116;11.580;2023-07-16T05:19:18;1.42;;;1.33;;
14021;SDS011;7086;48.116;11.580;2023-07-16T05:21:45;1.23;;;1.13;;
14021;SDS011;7086;48.116;11.580;2023-07-16T05:24:12;1.23;;;1.23;;
14021;SDS011;7086;48.116;11.580;2023-07-16T05:26:39;1.60;;;1.10;;
14021;SDS011;7086;48.116;11.580;2023-07-16T05:29:06;1.55;;;1.38;;
14021;SDS011;7086;48.116;11.580;2023-07-16T05:31:34;0.90;;;0.90;;
14021;SDS011;7086;48.116;11.580;2023-07-16T05:34:01;0.95;;;0.95;;
14021;SDS011;7086;48.116;11.580;2023-07-16T05:36:27;1.08;;;1.08;;
14021;SDS011;7086;48.116;11.580;2023-07-16T05:38:54;0.82;;;0.82;;
14021;SDS011;7086;48.116;11.580;2023-07-16T05:41:21;3.33;;;1.50;;
14021;SDS011;7086;48.116;11.580;2023-07-16T05:43:48;1.10;;;0.95;;
14021;SDS011;7086;48.116;11.580;2023-07-16T05:46:15;0.88;;;0.88;;
14021;SDS011;7086;48.116;11.580;2023-07-16T05:48:43;1.10;;;1.00;;
14021;SDS011;7086;48.116;11.580;2023-07-16T05:51:09;1.48;;;1.05;;
14021;SDS011;7086;48.116;11.580;2023-07-16T05:53:36;0.90;;;0.90;;
14021;SDS011;7086;48.116;11.580;2023-07-16T05:56:03;1.00;;;0.90;;
14021;SDS011;7086;48.116;11.580;2023-07-16T05:58:30;1.30;;;0.95;;
14021;SDS011;7086;48.116;11.580;2023-07-16T06:00:57;1.30;;;1.30;;
14021;SDS011;7086;48.116;11.580;2023-07-16T06:03:23;1.08;;;1.02;;
14021;SDS011;7086;48.116;11.580;2023-07-16T06:05:52;0.98;;;0.98;;
14021;SDS011;7086;48.116;11.580;2023-07-16T06:08:18;0.70;;;0.70;;
14021;SDS011;7086;48.116;11.580;2023-07-16T06:10:45;1.52;;;0.95;;
14021;SDS011;7086;48.116;11.580;2023-07-16T06:13:12;0.65;;;0.65;;
14021;SDS011;7086;48.116;11.580;2023-07-16T06:15:39;1.00;;;1.00;;
14021;SDS011;7086;48.116;11.580;2023-07-16T06:18:06;1.00;;;0.95;;
14021;SDS011;7086;48.116;11.580;2023-07-16T06:20:32;1.13;;;1.00;;
14021;SDS011;7086;48.116;11.580;2023-07-16T06:23:00;2.45;;;1.05;;
14021;SDS011;7086;48.116;11.580;2023-07-16T06:25:27;0.90;;;0.90;;
14021;SDS011;7086;48.116;11.580;2023-07-16T06:27:54;1.45;;;1.38;;
14021;SDS011;7086;48.116;11.580;2023-07-16T06:30:21;1.40;;;1.30;;
14021;SDS011;7086;48.116;11.580;2023-07-16T06:32:48;2.97;;;1.73;;
14021;SDS011;7086;48.116;11.580;2023-07-16T06:35:14;1.52;;;1.05;;
14021;SDS011;7086;48.116;11.580;2023-07-16T06:37:41;1.40;;;1.30;;
14021;SDS011;7086;48.116;11.580;2023-07-16T06:40:10;2.25;;;1.33;;
14021;SDS011;7086;48.116;11.580;2023-07-16T06:42:37;1.08;;;1.08;;
14021;SDS011;7086;48.116;11.580;2023-07-16T06:45:04;3.83;;;1.60;;
14021;SDS011;7086;48.116;11.580;2023-07-16T06:47:32;1.50;;;1.40;;
14021;SDS011;7086;48.116;11.580;2023-07-16T06:49:59;1.40;;;1.33;;
14021;SDS011;7086;48.116;11.580;2023-07-16T06:52:25;1.40;;;1.30;;
14021;SDS011;7086;48.116;11.580;2023-07-16T06:54:52;1.58;;;1.48;;
14021;SDS011;7086;48.116;11.580;2023-07-16T06:57:21;3.80;;;1.70;;
14021;SDS011;7086;48.116;11.580;2023-07-16T06:59:48;1.42;;;1.33;;
14021;SDS011;7086;48.116;11.580;2023-07-16T07:02:15;1.50;;;1.50;;
14021;SDS011;7086;48.116;11.580;2023-07-16T07:04:43;1.25;;;1.25;;
14021;SDS011;7086;48.116;11.580;2023-07-16T07:07:09;1.55;;;1.15;;
14021;SDS011;7086;48.116;11.580;2023-07-16T07:09:36;1.52;;;1.42;;
14021;SDS011;7086;48.116;11.580;2023-07-16T07:12:03;0.90;;;0.90;;
14021;SDS011;7086;48.116;11.580;2023-07-16T07:14:32;0.77;;;0.77;;
14021;SDS011;7086;48.116;11.580;2023-07-16T07:16:59;0.90;;;0.90;;
14021;SDS011;7086;48.116;11.580;2023-07-16T07:19:26;0.80;;;0.80;;
14021;SDS011;7086;48.116;11.580;2023-07-16T07:21:53;1.40;;;1.33;;
14021;SDS011;7086;48.116;11.580;2023-07-16T07:24:20;0.70;;;0.70;;
14021;SDS011;7086;48.116;11.580;2023-07-16T07:26:46;0.85;;;0.85;;
14021;SDS011;7086;48.116;11.580;2023-07-16T07:29:13;0.90;;;0.90;;
14021;SDS011;7086;48.116;11.580;2023-07-16T07:31:42;1.25;;;1.15;;
14021;SDS011;7086;48.116;11.580;2023-07-16T07:34:08;0.77;;;0.77;;
14021;SDS011;7086;48.116;11.580;2023-07-16T07:36:35;1.40;;;0.75;;
14021;SDS011;7086;48.116;11.580;2023-07-16T07:39:02;0.80;;;0.80;;
14021;SDS011;7086;48.116;11.580;2023-07-16T07:41:29;2.13;;;0.98;;
14021;SDS011;7086;48.116;11.580;2023-07-16T07:43:56;1.17;;;1.17;;
14021;SDS011;7086;48.116;11.580;2023-07-16T07:46:22;1.08;;;1.08;;
14021;SDS011;7086;48.116;11.580;2023-07-16T07:48:50;1.00;;;0.90;;
14021;SDS011;7086;48.116;11.580;2023-07-16T07:51:17;1.33;;;1.00;;
14021;SDS011;7086;48.116;11.580;2023-07-16T07:53:44;1.13;;;0.98;;
14021;SDS011;7086;48.116;11.580;2023-07-16T07:56:11;0.88;;;0.88;;
14021;SDS011;7086;48.116;11.580;2023-07-16T07:58:38;1.10;;;1.10;;
14021;SDS011;7086;48.116;11.580;2023-07-16T08:01:05;2.65;;;0.80;;
14021;SDS011;7086;48.116;11.580;2023-07-16T08:03:32;0.95;;;0.90;;
14021;SDS011;7086;48.116;11.580;2023-07-16T08:06:01;0.80;;;0.80;;
14021;SDS011;7086;48.116;11.580;2023-07-16T08:08:28;0.80;;;0.80;;
14021;SDS011;7086;48.116;11.580;2023-07-16T08:10:55;0.90;;;0.90;;
14021;SDS011;7086;48.116;11.580;2023-07-16T08:13:22;1.20;;;1.20;;
14021;SDS011;7086;48.116;11.580;2023-07-16T08:15:49;1.15;;;1.05;;
14021;SDS011;7086;48.116;11.580;2023-07-16T08:18:15;0.90;;;0.90;;
14021;SDS011;7086;48.116;11.580;2023-07-16T08:20:42;1.55;;;0.95;;
14021;SDS011;7086;48.116;11.580;2023-07-16T08:23:10;1.10;;;0.98;;
14021;SDS011;7086;48.116;11.580;2023-07-16T08:25:38;0.80;;;0.80;;
14021;SDS011;7086;48.116;11.580;2023-07-16T08:28:05;0.77;;;0.77;;
14021;SDS011;7086;48.116;11.580;2023-07-16T08:30:32;0.63;;;0.63;;
14021;SDS011;7086;48.116;11.580;2023-07-16T08:33:01;0.90;;;0.90;;
14021;SDS011;7086;48.116;11.580;2023-07-16T08:35:28;0.95;;;0.95;;
14021;SDS011;7086;48.116;11.580;2023-07-16T08:37:54;1.10;;;1.10;;
14021;SDS011;7086;48.116;11.580;2023-07-16T08:40:22;1.73;;;1.63;;
14021;SDS011;7086;48.116;11.580;2023-07-16T08:42:50;2.78;;;1.20;;
14021;SDS011;7086;48.116;11.580;2023-07-16T08:45:17;1.02;;;0.93;;
14021;SDS011;7086;48.116;11.580;2023-07-16T08:47:45;0.80;;;0.80;;
14021;SDS011;7086;48.116;11.580;2023-07-16T08:50:12;0.70;;;0.70;;
14021;SDS011;7086;48.116;11.580;2023-07-16T08:52:39;1.00;;;0.95;;
14021;SDS011;7086;48.116;11.580;2023-07-16T08:55:06;3.40;;;0.90;;
14021;SDS011;7086;48.116;11.580;2023-07-16T08:57:35;0.90;;;0.90;;
14021;SDS011;7086;48.116;11.580;2023-07-16T09:00:03;1.00;;;1.00;;
14021;SDS011;7086;48.116;11.580;2023-07-16T09:02:31;6.45;;;6.05;;
14021;SDS011;7086;48.116;11.580;2023-07-16T09:04:57;1.73;;;1.63;;
14021;SDS011;7086;48.116;11.580;2023-07-16T09:07:26;1.15;;;1.15;;
14021;SDS011;7086;48.116;11.580;2023-07-16T09:09:55;0.88;;;0.60;;
14021;SDS011;7086;48.116;11.580;2023-07-16T09:12:25;0.60;;;0.60;;
14021;SDS011;7086;48.116;11.580;2023-07-16T09:14:53;0.75;;;0.75;;
14021;SDS011;7086;48.116;11.580;2023-07-16T09:17:20;1.08;;;1.05;;
14021;SDS011;7086;48.116;11.580;2023-07-16T09:19:49;1.50;;;1.38;;
14021;SDS011;7086;48.116;11.580;2023-07-16T09:22:16;1.00;;;1.00;;
14021;SDS011;7086;48.116;11.580;2023-07-16T09:24:44;1.10;;;0.82;;
14021;SDS011;7086;48.116;11.580;2023-07-16T09:27:11;1.05;;;1.05;;
14021;SDS011;7086;48.116;11.580;2023-07-16T09:29:38;0.75;;;0.75;;
14021;SDS011;7086;48.116;11.580;2023-07-16T09:32:06;0.70;;;0.70;;
14021;SDS011;7086;48.116;11.580;2023-07-16T09:34:34;0.90;;;0.90;;
14021;SDS011;7086;48.116;11.580;2023-07-16T09:37:01;0.80;;;0.80;;
14021;SDS011;7086;48.116;11.580;2023-07-16T09:39:28;0.73;;;0.73;;
14021;SDS011;7086;48.116;11.580;2023-07-16T09:41:55;0.80;;;0.80;;
14021;SDS011;7086;48.116;11.580;2023-07-16T09:44:22;0.68;;;0.68;;
14021;SDS011;7086;48.116;11.580;2023-07-16T09:46:49;0.80;;;0.80;;
14021;SDS011;7086;48.116;11.580;2023-07-16T09:49:17;1.00;;;1.00;;
14021;SDS011;7086;48.116;11.580;2023-07-16T09:51:44;0.68;;;0.68;;
14021;SDS011;7086;48.116;11.580;2023-07-16T09:54:12;1.20;;;1.10;;
14021;SDS011;7086;48.116;11.580;2023-07-16T09:56:41;0.85;;;0.85;;
14021;SDS011;7086;48.116;11.580;2023-07-16T09:59:13;0.52;;;0.52;;
14021;SDS011;7086;48.116;11.580;2023-07-16T10:01:46;0.65;;;0.65;;
14021;SDS011;7086;48.116;11.580;2023-07-16T10:04:13;1.10;;;0.88;;
14021;SDS011;7086;48.116;11.580;2023-07-16T10:06:51;0.68;;;0.68;;
14021;SDS011;7086;48.116;11.580;2023-07-16T10:09:34;1.00;;;1.00;;
14021;SDS011;7086;48.116;11.580;2023-07-16T10:14:51;2.00;;;1.90;;
14021;SDS011;7086;48.116;11.580;2023-07-16T10:17:22;1.60;;;1.50;;
14021;SDS011;7086;48.116;11.580;2023-07-16T10:19:51;1.00;;;1.00;;
14021;SDS011;7086;48.116;11.580;2023-07-16T10:22:32;0.68;;;0.68;;
14021;SDS011;7086;48.116;11.580;2023-07-16T10:25:01;1.27;;;1.17;;
14021;SDS011;7086;48.116;11.580;2023-07-16T10:27:28;2.05;;;1.63;;
14021;SDS011;7086;48.116;11.580;2023-07-16T10:29:56;1.10;;;1.10;;
14021;SDS011;7086;48.116;11.580;2023-07-16T10:32:26;0.88;;;0.88;;
14021;SDS011;7086;48.116;11.580;2023-07-16T10:34:54;0.90;;;0.90;;
14021;SDS011;7086;48.116;11.580;2023-07-16T10:37:22;1.08;;;1.02;;
14021;SDS011;7086;48.116;11.580;2023-07-16T10:39:52;2.35;;;2.15;;
14021;SDS011;7086;48.116;11.580;2023-07-16T10:42:20;1.33;;;1.23;;
14021;SDS011;7086;48.116;11.580;2023-07-16T10:44:49;1.70;;;1.60;;
14021;SDS011;7086;48.116;11.580;2023-07-16T10:47:22;2.28;;;2.17;;
14021;SDS011;7086;48.116;11.580;2023-07-16T10:49:50;1.35;;;1.35;;
14021;SDS011;7086;48.116;11.580;2023-07-16T10:52:19;1.67;;;1.58;;
14021;SDS011;7086;48.116;11.580;2023-07-16T10:54:47;1.23;;;1.23;;
14021;SDS011;7086;48.116;11.580;2023-07-16T10:57:17;1.10;;;1.10;;
14021;SDS011;7086;48.116;11.580;2023-07-16T10:59:44;1.30;;;0.80;;
14021;SDS011;7086;48.116;11.580;2023-07-16T11:02:14;0.80;;;0.73;;
14021;SDS011;7086;48.116;11.580;2023-07-16T11:04:42;1.08;;;0.70;;
14021;SDS011;7086;48.116;11.580;2023-07-16T11:07:11;0.70;;;0.70;;
14021;SDS011;7086;48.116;11.580;2023-07-16T11:09:40;0.80;;;0.80;;
14021;SDS011;7086;48.116;11.580;2023-07-16T11:12:09;1.70;;;1.60;;
14021;SDS011;7086;48.116;11.580;2023-07-16T11:14:43;1.40;;;1.40;;
14021;SDS011;7086;48.116;11.580;2023-07-16T11:17:12;1.65;;;1.55;;
14021;SDS011;7086;48.116;11.580;2023-07-16T11:19:41;1.20;;;1.20;;
14021;SDS011;7086;48.116;11.580;2023-07-16T11:22:11;1.33;;;1.23;;
14021;SDS011;7086;48.116;11.580;2023-07-16T11:24:38;1.00;;;1.00;;
14021;SDS011;7086;48.116;11.580;2023-07-16T11:27:15;0.90;;;0.90;;
14021;SDS011;7086;48.116;11.580;2023-07-16T11:29:48;1.10;;;1.10;;
14021;SDS011;7086;48.116;11.580;2023-07-16T11:32:26;1.13;;;0.90;;
14021;SDS011;7086;48.116;11.580;2023-07-16T11:34:54;0.80;;;0.70;;
14021;SDS011;7086;48.116;11.580;2023-07-16T11:37:21;1.00;;;1.00;;
14021;SDS011;7086;48.116;11.580;2023-07-16T11:39:50;0.75;;;0.75;;
14021;SDS011;7086;48.116;11.580;2023-07-16T11:42:22;0.90;;;0.90;;
14021;SDS011;7086;48.116;11.580;2023-07-16T11:44:52;1.08;;;0.98;;
14021;SDS011;7086;48.116;11.580;2023-07-16T11:47:20;1.00;;;1.00;;
14021;SDS011;7086;48.116;11.580;2023-07-16T11:49:48;0.90;;;0.90;;
14021;SDS011;7086;48.116;11.580;2023-07-16T11:52:18;1.02;;;1.02;;
14021;SDS011;7086;48.116;11.580;2023-07-16T11:54:57;1.10;;;1.10;;
14021;SDS011;7086;48.116;11.580;2023-07-16T11:57:25;1.60;;;1.50;;
14021;SDS011;7086;48.116;11.580;2023-07-16T11:59:54;0.90;;;0.90;;
14021;SDS011;7086;48.116;11.580;2023-07-16T12:02:21;1.33;;;1.27;;
14021;SDS011;7086;48.116;11.580;2023-07-16T12:04:50;1.25;;;1.15;;
14021;SDS011;7086;48.116;11.580;2023-07-16T12:07:19;1.48;;;1.38;;
14021;SDS011;7086;48.116;11.580;2023-07-16T12:09:57;1.25;;;1.15;;
14021;SDS011;7086;48.116;11.580;2023-07-16T12:12:24;1.05;;;1.02;;
14021;SDS011;7086;48.116;11.580;2023-07-16T12:14:51;0.93;;;0.93;;
14021;SDS011;7086;48.116;11.580;2023-07-16T12:17:19;1.10;;;1.00;;
14021;SDS011;7086;48.116;11.580;2023-07-16T12:19:46;0.98;;;0.98;;
14021;SDS011;7086;48.116;11.580;2023-07-16T12:22:13;1.70;;;1.60;;
14021;SDS011;7086;48.116;11.580;2023-07-16T12:24:42;2.05;;;1.85;;
14021;SDS011;7086;48.116;11.580;2023-07-16T12:27:09;1.48;;;1.38;;
14021;SDS011;7086;48.116;11.580;2023-07-16T12:29:36;1.30;;;1.30;;
14021;SDS011;7086;48.116;11.580;2023-07-16T12:32:03;2.78;;;1.10;;
14021;SDS011;7086;48.116;11.580;2023-07-16T12:34:31;1.15;;;1.10;;
14021;SDS011;7086;48.116;11.580;2023-07-16T12:36:58;0.90;;;0.90;;
14021;SDS011;7086;48.116;11.580;2023-07-16T12:39:25;1.70;;;1.20;;
14021;SDS011;7086;48.116;11.580;2023-07-16T12:41:52;1.88;;;1.08;;
14021;SDS011;7086;48.116;11.580;2023-07-16T12:44:19;0.90;;;0.90;;
14021;SDS011;7086;48.116;11.580;2023-07-16T12:46:45;4.32;;;3.95;;
14021;SDS011;7086;48.116;11.580;2023-07-16T12:49:12;3.42;;;3.22;;
14021;SDS011;7086;48.116;11.580;2023-07-16T12:51:40;2.72;;;2.63;;
14021;SDS011;7086;48.116;11.580;2023-07-16T12:54:07;4.43;;;4.13;;
14021;SDS011;7086;48.116;11.580;2023-07-16T12:56:34;5.35;;;2.25;;
14021;SDS011;7086;48.116;11.580;2023-07-16T12:59:01;1.80;;;1.20;;
14021;SDS011;7086;48.116;11.580;2023-07-16T13:01:28;0.98;;;0.98;;
14021;SDS011;7086;48.116;11.580;2023-07-16T13:03:56;1.10;;;1.10;;
14021;SDS011;7086;48.116;11.580;2023-07-16T13:06:22;1.02;;;1.02;;
14021;SDS011;7086;48.116;11.580;2023-07-16T13:08:51;1.40;;;1.30;;
14021;SDS011;7086;48.116;11.580;2023-07-16T13:11:17;1.27;;;1.27;;
14021;SDS011;7086;48.116;11.580;2023-07-16T13:13:44;1.50;;;1.40;;
14021;SDS011;7086;48.116;11.580;2023-07-16T13:16:11;1.00;;;1.00;;
14021;SDS011;7086;48.116;11.580;2023-07-16T13:18:38;1.30;;;1.20;;
14021;SDS011;7086;48.116;11.580;2023-07-16T13:21:05;1.38;;;1.38;;
14021;SDS011;7086;48.116;11.580;2023-07-16T13:23:32;1.50;;;1.40;;
14021;SDS011;7086;48.116;11.580;2023-07-16T13:26:00;1.30;;;1.30;;
14021;SDS011;7086;48.116;11.580;2023-07-16T13:28:27;1.73;;;1.42;;
14021;SDS011;7086;48.116;11.580;2023-07-16T13:30:54;2.20;;;2.10;;
14021;SDS011;7086;48.116;11.580;2023-07-16T13:33:22;5.28;;;4.90;;
14021;SDS011;7086;48.116;11.580;2023-07-16T13:35:49;5.03;;;4.72;;
14021;SDS011;7086;48.116;11.580;2023-07-16T13:38:16;2.42;;;2.33;;
14021;SDS011;7086;48.116;11.580;2023-07-16T13:40:43;2.90;;;2.70;;
14021;SDS011;7086;48.116;11.580;2023-07-16T13:43:11;1.92;;;1.80;;
14021;SDS011;7086;48.116;11.580;2023-07-16T13:45:38;1.70;;;1.60;;
14021;SDS011;7086;48.116;11.580;2023-07-16T13:48:05;2.50;;;2.40;;
14021;SDS011;7086;48.116;11.580;2023-07-16T13:50:32;2.20;;;2.10;;
14021;SDS011;7086;48.116;11.580;2023-07-16T13:52:59;1.80;;;1.70;;
14021;SDS011;7086;48.116;11.580;2023-07-16T13:55:26;1.75;;;1.65;;
14021;SDS011;7086;48.116;11.580;2023-07-16T13:57:55;2.00;;;1.90;;
14021;SDS011;7086;48.116;11.580;2023-07-16T14:00:24;1.08;;;1.08;;
14021;SDS011;7086;48.116;11.580;2023-07-16T14:02:51;2.83;;;1.45;;
14021;SDS011;7086;48.116;11.580;2023-07-16T14:05:18;1.00;;;1.00;;
14021;SDS011;7086;48.116;11.580;2023-07-16T14:07:46;1.15;;;1.15;;
14021;SDS011;7086;48.116;11.580;2023-07-16T14:10:13;1.75;;;1.23;;
14021;SDS011;7086;48.116;11.580;2023-07-16T14:12:39;4.93;;;4.53;;
14021;SDS011;7086;48.116;11.580;2023-07-16T14:15:07;2.08;;;1.98;;
14021;SDS011;7086;48.116;11.580;2023-07-16T14:17:35;1.50;;;1.50;;
14021;SDS011;7086;48.116;11.580;2023-07-16T14:20:02;1.40;;;1.30;;
14021;SDS011;7086;48.116;11.580;2023-07-16T14:22:29;1.15;;;1.10;;
14021;SDS011;7086;48.116;11.580;2023-07-16T14:24:56;1.95;;;1.20;;
14021;SDS011;7086;48.116;11.580;2023-07-16T14:27:23;3.17;;;1.33;;
14021;SDS011;7086;48.116;11.580;2023-07-16T14:29:50;1.40;;;1.40;;
14021;SDS011;7086;48.116;11.580;2023-07-16T14:32:17;2.42;;;1.30;;
14021;SDS011;7086;48.116;11.580;2023-07-16T14:34:45;1.13;;;1.13;;
14021;SDS011;7086;48.116;11.580;2023-07-16T14:37:12;1.33;;;1.33;;
14021;SDS011;7086;48.116;11.580;2023-07-16T14:39:39;1.40;;;1.30;;
14021;SDS011;7086;48.116;11.580;2023-07-16T14:42:05;1.52;;;1.42;;
14021;SDS011;7086;48.116;11.580;2023-07-16T14:44:33;1.42;;;1.35;;
14021;SDS011;7086;48.116;11.580;2023-07-16T14:47:00;2.05;;;1.95;;
14021;SDS011;7086;48.116;11.580;2023-07-16T14:49:29;1.67;;;1.58;;
14021;SDS011;7086;48.116;11.580;2023-07-16T14:52:00;0.90;;;0.90;;
14021;SDS011;7086;48.116;11.580;2023-07-16T14:54:27;2.15;;;1.95;;